Time;durP1;ratioP1;P1;durP2;ratioP2;P2;SDS_P1;SDS_P2;PMS_P1;PMS_P2;Temp;Humidity;BMP_temperature;BMP_pressure;BME280_temperature;BME280_humidity;BME280_pressure;Samples;Min_cycle;Max_cycle;Signal;HPM_P1;HPM_P2
2022/11/11 00:01:58;;;;;;;13.13;6.47;;;9.90;99.90;;;;;;5052726;28;20040;-54
2022/11/11 00:04:23;;;;;;;16.77;6.85;;;10.00;99.90;;;;;;5065752;28;20122;-51
2022/11/11 00:06:49;;;;;;;15.40;6.93;;;9.90;99.90;;;;;;5071037;28;20080;-52
2022/11/11 00:09:14;;;;;;;15.10;7.57;;;9.90;99.90;;;;;;5058660;28;20138;-52
2022/11/11 00:11:40;;;;;;;14.50;7.43;;;9.90;99.90;;;;;;5040022;28;20044;-53
2022/11/11 00:14:05;;;;;;;13.20;7.23;;;9.90;99.90;;;;;;5051436;28;20167;-54
2022/11/11 00:25:04;;;;;;;13.87;7.20;;;9.90;99.90;;;;;;5062137;28;20132;-56
2022/11/11 00:27:29;;;;;;;12.65;7.85;;;9.80;99.90;;;;;;5051264;28;20045;-51
2022/11/11 00:29:55;;;;;;;20.40;7.80;;;9.80;99.90;;;;;;5051136;28;20041;-52
2022/11/11 00:32:26;;;;;;;13.93;7.03;;;9.70;99.90;;;;;;5050141;28;20494;-54
2022/11/11 00:37:38;;;;;;;15.88;8.02;;;9.70;99.90;;;;;;5055751;28;20057;-55
2022/11/11 00:40:05;;;;;;;17.95;8.45;;;9.70;99.90;;;;;;5067148;28;20044;-54
2022/11/11 00:42:31;;;;;;;22.65;9.18;;;9.70;99.90;;;;;;5056856;28;20048;-51
2022/11/11 00:44:56;;;;;;;19.73;9.10;;;9.70;99.90;;;;;;5082485;28;20521;-55
2022/11/11 00:53:18;;;;;;;12.98;9.45;;;9.60;99.90;;;;;;5069067;28;20044;-55
2022/11/11 00:55:43;;;;;;;21.15;10.52;;;9.60;99.90;;;;;;5065610;28;20093;-54
2022/11/11 00:58:09;;;;;;;17.40;8.87;;;9.70;99.90;;;;;;5066841;28;20040;-54
2022/11/11 01:00:34;;;;;;;17.50;9.87;;;9.70;99.90;;;;;;5070828;28;20528;-52
2022/11/11 01:03:00;;;;;;;17.43;9.67;;;9.70;99.90;;;;;;5055419;28;20039;-53
2022/11/11 01:05:26;;;;;;;18.47;10.20;;;9.70;99.90;;;;;;5056313;28;20112;-54
2022/11/11 01:07:52;;;;;;;22.58;9.13;;;9.60;99.90;;;;;;5057149;28;20048;-55
2022/11/11 01:10:37;;;;;;;19.13;9.90;;;9.60;99.90;;;;;;5054865;28;20490;-55
2022/11/11 01:13:13;;;;;;;16.90;8.90;;;9.60;99.90;;;;;;5057541;28;20151;-55
2022/11/11 01:15:40;;;;;;;17.58;9.50;;;9.60;99.90;;;;;;5074039;28;20058;-55
2022/11/11 01:18:07;;;;;;;22.83;10.02;;;9.60;99.90;;;;;;5072751;28;20040;-55
2022/11/11 01:20:33;;;;;;;20.48;9.70;;;9.50;99.90;;;;;;5067088;28;20032;-50
2022/11/11 01:22:58;;;;;;;21.95;10.23;;;9.50;99.90;;;;;;5071662;28;20098;-53
2022/11/11 01:25:24;;;;;;;20.85;9.63;;;9.50;99.90;;;;;;5070077;28;20087;-51
2022/11/11 01:27:49;;;;;;;19.73;10.70;;;9.50;99.90;;;;;;5071332;28;20044;-54
2022/11/11 01:30:15;;;;;;;21.17;9.73;;;9.50;99.90;;;;;;5072445;28;20086;-53
2022/11/11 01:32:41;;;;;;;18.65;9.57;;;9.50;99.90;;;;;;5070278;28;20033;-53
2022/11/11 01:35:07;;;;;;;18.60;11.47;;;9.50;99.90;;;;;;5052421;28;20119;-50
2022/11/11 01:37:33;;;;;;;14.35;9.77;;;9.40;99.90;;;;;;5053078;28;20280;-52
2022/11/11 01:39:59;;;;;;;15.63;9.77;;;9.40;99.90;;;;;;5052758;28;20036;-53
2022/11/11 01:42:24;;;;;;;20.63;10.20;;;9.40;99.90;;;;;;5060563;28;20048;-53
2022/11/11 01:44:50;;;;;;;18.70;10.87;;;9.40;99.90;;;;;;5057796;28;20521;-52
2022/11/11 01:47:18;;;;;;;18.83;11.07;;;9.40;99.90;;;;;;5053025;28;20052;-52
2022/11/11 01:50:00;;;;;;;17.35;10.48;;;9.40;99.90;;;;;;5066715;28;20659;-50
2022/11/11 01:52:31;;;;;;;20.48;11.65;;;9.40;99.90;;;;;;5079189;28;20395;-52
2022/11/11 01:55:02;;;;;;;21.90;11.43;;;9.30;99.90;;;;;;5070715;28;20044;-51
2022/11/11 01:57:32;;;;;;;16.70;11.07;;;9.30;99.90;;;;;;5085754;28;20144;-52
2022/11/11 02:00:03;;;;;;;18.52;12.18;;;9.30;99.90;;;;;;5069555;28;20153;-50
2022/11/11 02:02:34;;;;;;;17.77;13.45;;;9.30;99.90;;;;;;5057577;28;20052;-54
2022/11/11 02:07:47;;;;;;;21.27;13.50;;;9.30;99.90;;;;;;5067580;28;20127;-52
2022/11/11 02:10:13;;;;;;;23.45;13.18;;;9.30;99.90;;;;;;5070430;28;20123;-52
2022/11/11 02:15:23;;;;;;;22.50;14.60;;;9.30;99.90;;;;;;5062028;28;20469;-52
2022/11/11 02:17:49;;;;;;;24.73;13.70;;;9.30;99.90;;;;;;5058974;28;20076;-51
2022/11/11 02:20:19;;;;;;;25.55;15.10;;;9.30;99.90;;;;;;5066106;28;20133;-51
2022/11/11 02:23:02;;;;;;;22.35;14.35;;;9.30;99.90;;;;;;5070114;28;20037;-51
2022/11/11 02:25:30;;;;;;;25.65;15.88;;;9.30;99.90;;;;;;5070516;28;20576;-52
2022/11/11 02:28:00;;;;;;;31.38;17.02;;;9.30;99.90;;;;;;5071598;28;20079;-54
2022/11/11 02:30:25;;;;;;;27.75;16.52;;;9.40;99.90;;;;;;5072191;28;20048;-51
2022/11/11 02:32:52;;;;;;;29.60;17.43;;;9.40;99.90;;;;;;5054294;28;20158;-53
2022/11/11 02:35:28;;;;;;;26.65;17.25;;;9.40;99.90;;;;;;5070096;28;20318;-52
2022/11/11 02:37:54;;;;;;;33.30;17.15;;;9.40;99.90;;;;;;5059693;28;20047;-51
2022/11/11 02:40:33;;;;;;;28.30;18.30;;;9.50;99.90;;;;;;5052252;28;20124;-51
2022/11/11 02:42:59;;;;;;;27.45;16.67;;;9.50;99.90;;;;;;5066734;28;20041;-52
2022/11/11 02:45:25;;;;;;;29.85;18.77;;;9.50;99.90;;;;;;5070099;28;20050;-51
2022/11/11 02:47:50;;;;;;;27.10;16.77;;;9.50;99.90;;;;;;5071624;28;20044;-52
2022/11/11 02:50:16;;;;;;;34.33;17.70;;;9.50;99.90;;;;;;5071647;28;20452;-56
2022/11/11 02:52:41;;;;;;;26.10;18.60;;;9.60;99.90;;;;;;5071376;28;20452;-53
2022/11/11 02:55:07;;;;;;;34.87;18.07;;;9.50;99.90;;;;;;5050885;28;20640;-52
2022/11/11 02:57:33;;;;;;;30.98;19.35;;;9.60;99.90;;;;;;5052967;28;20033;-52
2022/11/11 02:59:59;;;;;;;27.23;17.48;;;9.60;99.90;;;;;;5064367;28;20043;-51
2022/11/11 03:02:26;;;;;;;32.63;20.30;;;9.70;99.90;;;;;;5069517;28;20047;-54
2022/11/11 03:04:56;;;;;;;29.48;18.30;;;9.70;99.90;;;;;;5071504;28;20047;-54
2022/11/11 03:07:23;;;;;;;27.50;18.73;;;9.70;99.90;;;;;;5059087;28;20048;-55
2022/11/11 03:09:49;;;;;;;35.53;21.45;;;9.70;99.90;;;;;;5075099;28;20553;-53
2022/11/11 03:12:16;;;;;;;30.70;19.27;;;9.80;99.90;;;;;;5071594;28;20036;-54
2022/11/11 03:14:42;;;;;;;34.08;21.42;;;9.80;99.90;;;;;;5068414;28;20051;-53
2022/11/11 03:19:52;;;;;;;33.67;20.38;;;9.80;99.90;;;;;;5061860;28;20106;-56
2022/11/11 03:22:17;;;;;;;30.60;19.83;;;9.90;99.90;;;;;;5070323;28;20076;-54
2022/11/11 03:27:27;;;;;;;36.47;19.48;;;9.90;99.90;;;;;;5068157;28;20041;-55
2022/11/11 03:29:52;;;;;;;34.53;20.33;;;9.90;99.90;;;;;;5070895;28;20107;-54
2022/11/11 03:32:18;;;;;;;33.13;22.30;;;9.90;99.90;;;;;;5070999;28;20043;-55
2022/11/11 03:34:43;;;;;;;28.80;19.70;;;9.90;99.90;;;;;;5069305;28;20521;-54
2022/11/11 03:39:54;;;;;;;35.90;21.25;;;9.90;99.90;;;;;;5067354;28;20414;-55
2022/11/11 03:42:20;;;;;;;29.80;21.48;;;10.00;99.90;;;;;;5053467;28;20045;-55
2022/11/11 03:44:46;;;;;;;37.13;21.30;;;10.00;99.90;;;;;;5050102;28;20037;-56
2022/11/11 03:47:11;;;;;;;33.63;20.50;;;10.00;99.90;;;;;;5056551;28;20037;-54
2022/11/11 03:49:37;;;;;;;35.93;22.40;;;10.00;99.90;;;;;;5068748;28;20037;-55
2022/11/11 03:52:03;;;;;;;36.53;22.25;;;10.00;99.90;;;;;;5068326;28;20039;-55
2022/11/11 03:54:28;;;;;;;36.22;22.17;;;10.00;99.90;;;;;;5069864;28;20033;-54
2022/11/11 03:57:29;;;;;;;42.20;22.63;;;10.00;99.90;;;;;;5069770;28;20040;-52
2022/11/11 03:59:40;;;;;;;35.38;22.38;;;10.00;99.90;;;;;;5067606;28;20608;-54
2022/11/11 04:10:24;;;;;;;33.53;23.45;;;10.10;99.90;;;;;;5067826;28;20041;-51
2022/11/11 04:16:04;;;;;;;27.55;22.30;;;10.10;99.90;;;;;;5066873;28;20040;-51
2022/11/11 04:21:42;;;;;;;37.70;23.67;;;10.10;99.90;;;;;;5049630;28;20060;-53
2022/11/11 04:23:53;;;;;;;32.05;24.65;;;10.10;99.90;;;;;;5069185;28;20044;-52
2022/11/11 04:26:18;;;;;;;33.38;21.80;;;10.10;99.90;;;;;;5069962;28;20037;-54
2022/11/11 04:31:28;;;;;;;29.08;22.08;;;10.10;99.90;;;;;;5055869;28;20116;-55
2022/11/11 04:33:54;;;;;;;37.77;23.87;;;10.10;99.90;;;;;;5053272;28;20107;-53
2022/11/11 04:36:19;;;;;;;36.23;23.13;;;10.20;99.90;;;;;;5069888;28;20566;-54
2022/11/11 04:41:29;;;;;;;32.65;21.20;;;10.20;99.90;;;;;;5064207;28;20414;-51
2022/11/11 04:46:39;;;;;;;33.50;23.08;;;10.20;99.90;;;;;;5058866;28;20049;-55
2022/11/11 04:49:04;;;;;;;33.17;22.77;;;10.20;99.90;;;;;;5050071;28;20044;-55
2022/11/11 04:52:25;;;;;;;44.20;23.33;;;10.20;99.90;;;;;;5048233;28;20494;-55
2022/11/11 04:54:15;;;;;;;31.90;21.48;;;10.20;99.90;;;;;;5068439;28;20119;-52
2022/11/11 04:56:46;;;;;;;35.57;23.83;;;10.20;99.90;;;;;;5069495;28;20174;-53
2022/11/11 04:59:15;;;;;;;32.90;22.92;;;10.20;99.90;;;;;;5067213;28;20075;-54
2022/11/11 05:04:25;;;;;;;32.75;23.30;;;10.20;99.90;;;;;;5063119;28;20052;-54
2022/11/11 05:09:35;;;;;;;41.13;24.42;;;10.20;99.90;;;;;;5069215;28;20287;-53
2022/11/11 05:12:01;;;;;;;36.77;22.50;;;10.30;99.90;;;;;;5065422;28;20490;-53
2022/11/11 05:22:40;;;;;;;33.03;21.30;;;10.30;99.90;;;;;;5058691;28;20127;-55
2022/11/11 05:25:27;;;;;;;38.95;22.30;;;10.20;99.90;;;;;;5066088;28;20514;-52
2022/11/11 05:27:54;;;;;;;30.90;22.40;;;10.30;99.90;;;;;;5052997;28;20041;-52
2022/11/11 05:30:21;;;;;;;42.05;23.08;;;10.30;99.90;;;;;;5068307;28;20056;-54
2022/11/11 05:32:48;;;;;;;38.28;22.58;;;10.30;99.90;;;;;;5069200;28;20054;-54
2022/11/11 05:35:14;;;;;;;34.97;21.05;;;10.30;99.90;;;;;;5050507;28;20118;-52
2022/11/11 05:37:40;;;;;;;32.40;22.55;;;10.30;99.90;;;;;;5048943;28;20041;-53
2022/11/11 05:40:07;;;;;;;29.92;21.75;;;10.30;99.90;;;;;;5049410;28;20041;-54
2022/11/11 05:42:33;;;;;;;35.20;21.77;;;10.30;99.90;;;;;;5064587;28;20062;-55
2022/11/11 05:44:58;;;;;;;34.58;21.50;;;10.30;99.90;;;;;;5066873;28;20144;-55
2022/11/11 05:47:24;;;;;;;32.53;21.75;;;10.30;99.90;;;;;;5072734;28;20044;-54
2022/11/11 05:49:49;;;;;;;32.47;20.80;;;10.30;99.90;;;;;;5073068;28;20036;-55
2022/11/11 05:52:16;;;;;;;29.57;21.40;;;10.30;99.90;;;;;;5072238;28;20041;-56
2022/11/11 05:54:42;;;;;;;37.38;21.48;;;10.30;99.90;;;;;;5070954;28;20550;-54
2022/11/11 05:57:08;;;;;;;28.05;20.85;;;10.30;99.90;;;;;;5071284;28;20055;-55
2022/11/11 05:59:34;;;;;;;31.08;21.73;;;10.30;99.90;;;;;;5072080;28;20040;-53
2022/11/11 06:02:00;;;;;;;36.47;21.23;;;10.30;99.90;;;;;;5064570;28;20120;-51
2022/11/11 06:04:25;;;;;;;29.80;20.60;;;10.40;99.90;;;;;;5052371;28;20060;-56
2022/11/11 06:06:51;;;;;;;36.30;22.40;;;10.30;99.90;;;;;;5053004;28;20044;-51
2022/11/11 06:09:17;;;;;;;30.70;20.00;;;10.40;99.90;;;;;;5052700;28;20037;-53
2022/11/11 06:11:42;;;;;;;32.33;20.30;;;10.30;99.90;;;;;;5067744;28;20076;-53
2022/11/11 06:14:08;;;;;;;35.72;21.42;;;10.30;99.90;;;;;;5051138;28;20315;-53
2022/11/11 06:16:34;;;;;;;26.30;20.00;;;10.30;99.90;;;;;;5054883;28;20036;-51
2022/11/11 06:18:59;;;;;;;35.22;21.13;;;10.30;99.90;;;;;;5071590;28;20041;-54
2022/11/11 06:21:26;;;;;;;26.30;20.52;;;10.30;99.90;;;;;;5062245;28;20037;-51
2022/11/11 06:23:51;;;;;;;;;;;10.30;99.90;;;;;;5052507;28;20390;-51
2022/11/11 06:26:18;;;;;;;30.88;19.15;;;10.30;99.90;;;;;;5052006;28;19921;-52
2022/11/11 06:28:54;;;;;;;26.90;19.67;;;10.30;99.90;;;;;;5063166;28;20132;-55
2022/11/11 06:31:26;;;;;;;26.85;19.75;;;10.30;99.90;;;;;;5075771;28;20033;-53
2022/11/11 06:33:52;;;;;;;31.40;20.45;;;10.30;99.90;;;;;;5073644;28;20036;-54
2022/11/11 06:36:19;;;;;;;29.67;19.95;;;10.30;99.90;;;;;;5071168;28;20385;-53
2022/11/11 06:38:46;;;;;;;30.23;19.58;;;10.30;99.90;;;;;;5070042;28;20493;-53
2022/11/11 06:41:12;;;;;;;28.58;19.13;;;10.30;99.90;;;;;;5073123;28;20499;-53
2022/11/11 06:43:41;;;;;;;33.25;20.92;;;10.30;99.90;;;;;;5051002;28;20044;-51
2022/11/11 06:46:24;;;;;;;30.08;19.98;;;10.30;99.90;;;;;;5053568;28;20048;-52
2022/11/11 06:48:50;;;;;;;31.00;19.38;;;10.30;99.90;;;;;;5070027;28;20090;-53
2022/11/11 06:51:16;;;;;;;30.77;19.88;;;10.30;99.90;;;;;;5078949;28;20049;-54
2022/11/11 06:53:41;;;;;;;25.40;19.27;;;10.30;99.90;;;;;;5052399;28;20505;-54
2022/11/11 06:56:08;;;;;;;33.10;20.50;;;10.30;99.90;;;;;;5058152;28;20040;-53
2022/11/11 06:58:34;;;;;;;33.17;19.48;;;10.30;99.90;;;;;;5054864;28;20032;-51
2022/11/11 07:01:06;;;;;;;30.33;19.67;;;10.30;99.90;;;;;;5070649;28;20040;-53
2022/11/11 07:03:33;;;;;;;30.02;19.40;;;10.30;99.90;;;;;;5069650;28;20037;-51
2022/11/11 07:06:03;;;;;;;31.15;20.38;;;10.30;99.90;;;;;;5071211;28;20072;-51
2022/11/11 07:08:28;;;;;;;34.50;19.00;;;10.30;99.90;;;;;;5068135;28;20103;-54
2022/11/11 07:10:54;;;;;;;27.07;19.00;;;10.30;99.90;;;;;;5071416;28;20132;-53
2022/11/11 07:13:20;;;;;;;35.28;19.35;;;10.30;99.90;;;;;;5053255;28;20085;-54
2022/11/11 07:15:46;;;;;;;28.50;19.40;;;10.30;99.90;;;;;;5052312;28;20036;-51
2022/11/11 07:18:11;;;;;;;31.00;20.77;;;10.30;99.90;;;;;;5065309;28;20063;-51
2022/11/11 07:20:38;;;;;;;30.17;19.33;;;10.30;99.90;;;;;;5076270;28;20040;-54
2022/11/11 07:23:03;;;;;;;;;;;10.30;99.90;;;;;;5078518;28;20480;-54
2022/11/11 07:25:29;;;;;;;27.83;19.05;;;10.30;99.90;;;;;;5052450;28;19997;-52
2022/11/11 07:27:55;;;;;;;30.65;21.25;;;10.30;99.90;;;;;;5060702;28;20051;-54
2022/11/11 07:30:20;;;;;;;31.50;19.57;;;10.30;99.90;;;;;;5051948;28;20710;-52
2022/11/11 07:32:48;;;;;;;29.98;18.83;;;10.30;99.90;;;;;;5059948;28;20031;-54
2022/11/11 07:35:14;;;;;;;35.05;19.77;;;10.30;99.90;;;;;;5073571;28;20033;-54
2022/11/11 07:37:41;;;;;;;26.77;18.25;;;10.30;99.90;;;;;;5055318;28;20041;-52
2022/11/11 07:40:07;;;;;;;;;;;10.30;99.90;;;;;;5076211;28;20043;-53
2022/11/11 07:42:36;;;;;;;25.25;17.73;;;10.30;99.90;;;;;;5081140;28;19946;-52
2022/11/11 07:45:02;;;;;;;30.95;18.85;;;10.30;99.90;;;;;;5076016;28;20040;-54
2022/11/11 07:47:28;;;;;;;;;;;10.30;99.90;;;;;;5058644;28;20041;-50
2022/11/11 07:49:53;;;;;;;27.95;17.92;;;10.30;99.90;;;;;;5056552;28;19924;-54
2022/11/11 07:52:19;;;;;;;33.23;20.67;;;10.30;99.90;;;;;;5077222;28;20036;-52
2022/11/11 07:54:44;;;;;;;28.50;19.43;;;10.30;99.90;;;;;;5060825;28;20042;-54
2022/11/11 07:57:10;;;;;;;24.20;19.07;;;10.30;99.90;;;;;;5050358;28;20094;-54
2022/11/11 07:59:35;;;;;;;31.93;20.10;;;10.30;99.90;;;;;;5066500;28;20047;-54
2022/11/11 08:02:01;;;;;;;28.17;18.23;;;10.30;99.90;;;;;;5075214;28;20033;-54
2022/11/11 08:04:26;;;;;;;29.05;19.15;;;10.30;99.90;;;;;;5056111;28;20106;-51
2022/11/11 08:06:52;;;;;;;36.27;20.50;;;10.30;99.90;;;;;;5056377;28;20047;-55
2022/11/11 08:09:18;;;;;;;34.78;20.75;;;10.30;99.90;;;;;;5054153;28;20218;-54
2022/11/11 08:14:27;;;;;;;29.85;19.15;;;10.30;99.90;;;;;;5066605;28;20037;-51
2022/11/11 08:16:53;;;;;;;31.17;19.07;;;10.30;99.90;;;;;;5067790;28;20132;-51
2022/11/11 08:19:18;;;;;;;24.90;19.37;;;10.30;99.90;;;;;;5065658;28;20054;-52
2022/11/11 08:21:44;;;;;;;32.27;20.03;;;10.30;99.90;;;;;;5060815;28;20515;-55
2022/11/11 08:24:10;;;;;;;33.07;21.03;;;10.30;99.90;;;;;;5052328;28;20063;-54
2022/11/11 08:26:36;;;;;;;29.38;20.38;;;10.30;99.90;;;;;;5054140;28;20502;-55
2022/11/11 08:29:02;;;;;;;32.05;19.30;;;10.30;99.90;;;;;;5052015;28;20041;-55
2022/11/11 08:31:28;;;;;;;25.75;18.77;;;10.30;99.90;;;;;;5058387;28;20051;-52
2022/11/11 08:33:53;;;;;;;27.45;19.95;;;10.40;99.90;;;;;;5061013;28;20132;-54
2022/11/11 08:36:20;;;;;;;30.40;19.60;;;10.30;99.90;;;;;;5057301;28;20127;-51
2022/11/11 08:38:46;;;;;;;27.23;19.77;;;10.40;99.90;;;;;;5059651;28;20405;-54
2022/11/11 08:41:11;;;;;;;33.73;22.67;;;10.40;99.90;;;;;;5049116;28;20045;-53
2022/11/11 08:43:37;;;;;;;33.40;20.17;;;10.40;99.90;;;;;;5050632;28;20421;-52
2022/11/11 08:46:03;;;;;;;29.50;20.57;;;10.30;99.90;;;;;;5052872;28;20040;-52
2022/11/11 08:48:30;;;;;;;33.60;22.60;;;10.40;99.90;;;;;;5054882;28;20047;-52
2022/11/11 08:50:56;;;;;;;;;;;10.40;99.90;;;;;;5055315;28;20032;-51
2022/11/11 08:53:22;;;;;;;36.58;22.50;;;10.40;99.90;;;;;;5050189;28;19927;-52
2022/11/11 08:55:47;;;;;;;34.60;23.40;;;10.40;99.90;;;;;;5056184;28;20071;-54
2022/11/11 08:58:13;;;;;;;34.93;22.60;;;10.40;99.90;;;;;;5054390;28;20041;-54
2022/11/11 09:00:39;;;;;;;38.67;23.67;;;10.40;99.90;;;;;;5050869;28;20036;-54
2022/11/11 09:03:07;;;;;;;30.90;22.67;;;10.40;99.90;;;;;;5050700;28;20067;-51
2022/11/11 09:05:33;;;;;;;38.30;24.15;;;10.40;99.90;;;;;;5054050;28;20036;-53
2022/11/11 09:08:05;;;;;;;37.47;26.33;;;10.40;99.90;;;;;;5058779;28;20418;-53
2022/11/11 09:10:31;;;;;;;39.80;25.35;;;10.40;99.90;;;;;;5059389;28;20314;-56
2022/11/11 09:12:58;;;;;;;42.67;24.98;;;10.40;99.90;;;;;;5051197;28;20037;-54
2022/11/11 09:15:24;;;;;;;38.35;24.30;;;10.40;99.90;;;;;;5063991;28;20036;-55
2022/11/11 09:17:49;;;;;;;35.97;22.70;;;10.40;99.90;;;;;;5050860;28;20056;-54
2022/11/11 09:20:15;;;;;;;33.15;21.90;;;10.40;99.90;;;;;;5052721;28;20506;-52
2022/11/11 09:22:45;;;;;;;30.42;21.75;;;10.40;99.90;;;;;;5061864;28;20033;-54
2022/11/11 09:25:11;;;;;;;31.60;20.33;;;10.40;99.90;;;;;;5034776;28;20123;-51
2022/11/11 09:27:36;;;;;;;32.20;21.80;;;10.40;99.90;;;;;;5058490;28;20124;-54
2022/11/11 09:30:03;;;;;;;26.45;19.50;;;10.40;99.90;;;;;;5067950;28;20048;-54
2022/11/11 09:32:29;;;;;;;28.05;20.45;;;10.40;99.90;;;;;;5053220;28;20142;-52
2022/11/11 09:34:54;;;;;;;22.93;18.70;;;10.40;99.90;;;;;;5054191;28;20079;-53
2022/11/11 09:37:20;;;;;;;22.80;17.53;;;10.40;99.90;;;;;;5035555;28;20043;-54
2022/11/11 09:39:46;;;;;;;29.35;19.08;;;10.40;99.90;;;;;;5056999;28;20045;-55
2022/11/11 09:42:33;;;;;;;26.27;18.77;;;10.40;99.90;;;;;;5058096;28;20549;-51
2022/11/11 09:45:33;;;;;;;26.77;18.67;;;10.40;99.90;;;;;;5054820;28;20041;-53
2022/11/11 09:48:26;;;;;;;30.70;19.55;;;10.40;99.90;;;;;;5050807;28;20467;-56
2022/11/11 09:50:55;;;;;;;27.13;18.73;;;10.40;99.90;;;;;;5058896;28;20036;-54
2022/11/11 09:53:36;;;;;;;26.60;18.13;;;10.40;99.90;;;;;;5061627;28;20091;-56
2022/11/11 09:56:05;;;;;;;21.20;17.30;;;10.40;99.90;;;;;;5060328;28;20437;-56
2022/11/11 09:58:36;;;;;;;23.17;17.63;;;10.30;99.90;;;;;;5056745;28;20083;-56
2022/11/11 10:01:10;;;;;;;23.77;16.50;;;10.30;99.90;;;;;;5055446;28;20469;-57
2022/11/11 10:03:43;;;;;;;22.65;16.13;;;10.30;99.90;;;;;;5051997;28;20072;-58
2022/11/11 10:06:17;;;;;;;23.40;16.63;;;10.30;99.90;;;;;;5058250;28;20116;-57
2022/11/11 10:08:54;;;;;;;22.30;15.68;;;10.40;99.90;;;;;;5052362;28;20397;-58
2022/11/11 10:11:38;;;;;;;;;;;10.40;99.90;;;;;;5058516;28;20045;-56
2022/11/11 10:14:04;;;;;;;21.02;16.25;;;10.50;99.90;;;;;;5051045;28;19924;-57
2022/11/11 10:16:46;;;;;;;17.52;13.73;;;10.60;99.90;;;;;;5053187;28;20040;-56
2022/11/11 10:19:18;;;;;;;20.85;13.75;;;10.70;99.90;;;;;;5059415;28;20044;-56
2022/11/11 10:21:52;;;;;;;17.42;13.68;;;10.90;99.90;;;;;;5056878;28;20045;-56
2022/11/11 10:24:32;;;;;;;18.75;14.32;;;11.10;99.90;;;;;;5056789;28;20348;-57
2022/11/11 10:27:03;;;;;;;17.73;12.80;;;11.20;99.90;;;;;;5054181;28;20686;-56
2022/11/11 10:29:36;;;;;;;18.90;13.85;;;11.40;99.90;;;;;;5055477;28;20417;-57
2022/11/11 10:32:07;;;;;;;14.60;12.60;;;11.60;99.90;;;;;;5058055;28;20055;-57
2022/11/11 10:34:33;;;;;;;19.00;13.95;;;11.70;99.90;;;;;;5056497;28;20052;-57
2022/11/11 10:37:00;;;;;;;15.65;12.50;;;11.80;99.90;;;;;;5063453;28;20490;-57
2022/11/11 10:39:52;;;;;;;16.08;12.38;;;11.90;99.90;;;;;;5056704;28;20183;-56
2022/11/11 10:42:19;;;;;;;14.80;12.50;;;12.00;99.90;;;;;;5058485;28;20028;-57
2022/11/11 10:44:44;;;;;;;13.30;11.43;;;12.20;99.90;;;;;;5051843;28;20383;-56
2022/11/11 10:47:23;;;;;;;13.87;11.47;;;12.30;99.90;;;;;;5058939;28;20159;-57
2022/11/11 10:49:56;;;;;;;14.43;11.88;;;12.40;99.90;;;;;;5050083;28;20279;-57
2022/11/11 10:52:32;;;;;;;14.38;11.07;;;12.50;99.90;;;;;;5059483;28;20080;-57
2022/11/11 10:55:06;;;;;;;12.40;10.53;;;12.70;99.90;;;;;;5055509;28;20461;-56
2022/11/11 10:57:44;;;;;;;11.90;9.73;;;12.80;99.90;;;;;;5053885;28;20049;-57
2022/11/11 11:00:13;;;;;;;12.23;10.15;;;12.90;99.90;;;;;;5053162;28;20040;-57
2022/11/11 11:02:50;;;;;;;11.77;9.63;;;12.90;99.90;;;;;;5056367;28;20048;-57
2022/11/11 11:05:41;;;;;;;11.40;9.73;;;12.90;99.90;;;;;;5058534;28;20513;-56
2022/11/11 11:08:22;;;;;;;13.45;10.32;;;12.90;99.90;;;;;;5054940;28;21187;-57
2022/11/11 11:10:54;;;;;;;13.95;9.98;;;13.00;99.90;;;;;;5054614;28;20037;-57
2022/11/11 11:13:41;;;;;;;12.15;9.77;;;13.10;99.90;;;;;;5060385;28;20045;-58
2022/11/11 11:16:21;;;;;;;11.48;9.50;;;13.10;99.90;;;;;;5058518;28;20127;-56
2022/11/11 11:19:32;;;;;;;10.13;9.13;;;13.20;99.90;;;;;;5056801;28;20036;-56
2022/11/11 11:22:03;;;;;;;11.70;9.32;;;13.20;99.90;;;;;;5054172;28;20098;-57
2022/11/11 11:24:31;;;;;;;12.93;9.63;;;13.10;99.90;;;;;;5054756;28;20033;-54
2022/11/11 11:27:02;;;;;;;13.25;9.32;;;13.20;99.90;;;;;;5051198;28;20131;-57
2022/11/11 11:29:41;;;;;;;10.50;9.40;;;13.20;99.90;;;;;;5057853;28;20363;-56
2022/11/11 11:32:17;;;;;;;15.13;9.63;;;13.20;99.90;;;;;;5056097;28;20044;-57
2022/11/11 11:34:48;;;;;;;15.43;9.18;;;13.10;99.90;;;;;;5049992;28;20402;-57
2022/11/11 11:37:16;;;;;;;10.75;8.50;;;13.10;99.90;;;;;;5060573;28;20052;-57
2022/11/11 11:39:41;;;;;;;12.10;9.00;;;13.10;99.90;;;;;;5049805;28;20033;-55
2022/11/11 11:42:09;;;;;;;14.27;8.23;;;13.20;99.90;;;;;;5058411;28;20046;-56
2022/11/11 11:44:37;;;;;;;12.18;8.02;;;13.30;99.90;;;;;;5051066;28;20567;-56
2022/11/11 11:47:08;;;;;;;11.88;8.65;;;13.50;99.90;;;;;;5059793;28;20508;-57
2022/11/11 11:49:57;;;;;;;9.90;7.47;;;13.50;99.90;;;;;;5053403;28;20120;-54
2022/11/11 11:52:30;;;;;;;11.35;8.70;;;13.50;99.90;;;;;;5061294;28;20505;-57
2022/11/11 11:55:08;;;;;;;13.20;8.15;;;13.50;99.90;;;;;;5053744;28;20049;-57
2022/11/11 11:58:02;;;;;;;11.25;7.72;;;13.40;99.90;;;;;;5058931;28;20126;-58
2022/11/11 12:00:44;;;;;;;11.55;7.40;;;13.50;99.90;;;;;;5051844;28;20045;-57
2022/11/11 12:03:38;;;;;;;9.02;7.43;;;13.60;99.90;;;;;;5052437;28;20044;-56
2022/11/11 12:06:37;;;;;;;14.90;9.27;;;13.70;99.90;;;;;;5052462;28;20051;-57
2022/11/11 12:09:10;;;;;;;16.27;8.40;;;13.80;99.90;;;;;;5052459;28;20044;-55
2022/11/11 12:11:44;;;;;;;11.73;8.50;;;13.90;99.90;;;;;;5063936;28;20095;-56
2022/11/11 12:14:35;;;;;;;9.23;7.50;;;14.00;99.90;;;;;;5050954;28;20044;-56
2022/11/11 12:17:21;;;;;;;9.65;7.68;;;13.90;99.90;;;;;;5054103;28;20048;-57
2022/11/11 12:20:17;;;;;;;11.73;7.43;;;13.90;99.90;;;;;;5069188;28;20040;-57
2022/11/11 12:23:02;;;;;;;10.85;8.63;;;13.90;99.90;;;;;;5062640;28;20064;-56
2022/11/11 12:25:36;;;;;;;12.73;7.00;;;13.90;99.90;;;;;;5070370;28;20098;-57
2022/11/11 12:28:24;;;;;;;9.88;7.38;;;13.90;99.90;;;;;;5071416;28;20036;-58
2022/11/11 12:31:05;;;;;;;12.60;7.50;;;14.00;99.90;;;;;;5062706;28;20032;-57
2022/11/11 12:33:41;;;;;;;12.30;6.72;;;14.10;99.90;;;;;;5070230;28;20072;-56
2022/11/11 12:36:14;;;;;;;8.95;6.40;;;14.10;99.90;;;;;;5050186;28;20044;-56
2022/11/11 12:39:29;;;;;;;10.55;6.88;;;14.20;99.90;;;;;;5060654;28;20028;-56
2022/11/11 12:42:04;;;;;;;7.60;5.68;;;14.30;99.90;;;;;;5065392;28;20037;-57
2022/11/11 12:44:53;;;;;;;10.73;7.13;;;14.40;99.90;;;;;;5075061;28;20040;-55
2022/11/11 12:47:46;;;;;;;10.52;6.93;;;14.60;99.90;;;;;;5050076;28;20044;-58
2022/11/11 12:50:21;;;;;;;9.18;6.38;;;14.60;99.90;;;;;;5049698;28;20045;-57
2022/11/11 12:52:58;;;;;;;13.23;6.00;;;14.80;99.90;;;;;;5049844;28;20112;-56
2022/11/11 12:55:44;;;;;;;10.40;5.97;;;15.00;99.90;;;;;;5053431;28;20041;-56
2022/11/11 12:58:42;;;;;;;9.18;6.00;;;15.00;99.90;;;;;;5054095;28;20029;-56
2022/11/11 13:01:26;;;;;;;;;;;14.90;99.90;;;;;;5061224;28;20068;-57
2022/11/11 13:04:19;;;;;;;9.82;5.57;;;14.80;99.90;;;;;;5072938;28;20267;-57
2022/11/11 13:07:05;;;;;;;7.75;5.25;;;14.90;99.90;;;;;;5069202;28;20044;-57
2022/11/11 13:09:36;;;;;;;10.65;6.13;;;14.70;99.90;;;;;;5070689;28;20040;-58
2022/11/11 13:12:16;;;;;;;8.40;5.85;;;14.70;99.90;;;;;;5073492;28;20113;-57
2022/11/11 13:15:16;;;;;;;11.10;5.05;;;14.60;99.90;;;;;;5073156;28;20040;-59
2022/11/11 13:17:41;;;;;;;7.15;5.40;;;14.50;99.90;;;;;;5073083;28;20075;-54
2022/11/11 13:20:35;;;;;;;8.27;4.78;;;14.50;99.90;;;;;;5072870;28;20068;-57
2022/11/11 13:23:01;;;;;;;5.63;4.88;;;14.40;99.90;;;;;;5062556;28;20083;-56
2022/11/11 13:25:32;;;;;;;9.50;5.63;;;14.30;99.90;;;;;;5053341;28;20076;-55
2022/11/11 13:28:04;;;;;;;11.57;6.00;;;14.30;99.90;;;;;;5071132;28;20041;-56
2022/11/11 13:30:50;;;;;;;9.77;5.57;;;14.10;99.90;;;;;;5073514;28;20046;-56
2022/11/11 13:33:26;;;;;;;9.93;6.00;;;14.10;99.90;;;;;;5063270;28;20037;-55
2022/11/11 13:36:00;;;;;;;7.90;5.13;;;14.00;99.90;;;;;;5052287;28;20449;-54
2022/11/11 13:38:45;;;;;;;8.57;5.13;;;13.90;99.90;;;;;;5060241;28;20052;-55
2022/11/11 13:41:12;;;;;;;9.05;5.47;;;13.90;99.90;;;;;;5064616;28;20040;-54
2022/11/11 13:43:48;;;;;;;7.88;4.95;;;13.90;99.90;;;;;;5053921;28;20055;-56
2022/11/11 13:46:41;;;;;;;7.87;5.37;;;13.90;99.90;;;;;;5053078;28;20045;-55
2022/11/11 13:49:30;;;;;;;12.88;5.90;;;13.80;99.90;;;;;;5052910;28;20064;-55
2022/11/11 13:52:20;;;;;;;7.85;5.45;;;13.80;99.90;;;;;;5054195;28;20032;-55
2022/11/11 13:54:58;;;;;;;9.57;4.78;;;13.80;99.90;;;;;;5046026;28;20049;-53
2022/11/11 13:57:27;;;;;;;9.15;4.80;;;13.80;99.90;;;;;;5047725;28;20037;-56
2022/11/11 14:00:23;;;;;;;7.57;5.57;;;13.80;99.90;;;;;;5076122;28;20130;-57
2022/11/11 14:03:18;;;;;;;6.43;4.18;;;13.80;99.90;;;;;;5055833;28;20615;-55
2022/11/11 14:05:44;;;;;;;5.70;4.90;;;13.80;99.90;;;;;;5070898;28;20040;-56